Time;durP1;ratioP1;P1;durP2;ratioP2;P2;SDS_P1;SDS_P2;PMS_P1;PMS_P2;Temp;Humidity;BMP_temperature;BMP_pressure;BME280_temperature;BME280_humidity;BME280_pressure;Samples;Min_cycle;Max_cycle;Signal;HPM_P1;HPM_P2
2022/05/31 00:01:48;;;;;;;2.30;1.50;;;21.60;48.30;;;;;;5092600;28;20424;-65
2022/05/31 00:04:15;;;;;;;1.90;1.40;;;21.60;48.30;;;;;;5093067;28;20390;-65
2022/05/31 00:06:42;;;;;;;1.70;1.20;;;21.60;48.40;;;;;;5092898;28;20406;-65
2022/05/31 00:09:07;;;;;;;1.95;1.40;;;21.70;48.40;;;;;;5091677;28;20390;-65
2022/05/31 00:11:35;;;;;;;1.90;1.20;;;21.60;48.40;;;;;;5092483;28;20378;-65
2022/05/31 00:14:02;;;;;;;2.15;1.30;;;21.60;48.40;;;;;;5091353;28;20815;-65
2022/05/31 00:16:27;;;;;;;1.45;1.35;;;21.60;48.40;;;;;;5090765;28;20386;-65
2022/05/31 00:18:53;;;;;;;2.30;1.30;;;21.60;48.50;;;;;;5091519;28;20389;-65
2022/05/31 00:21:19;;;;;;;2.22;1.38;;;21.60;48.50;;;;;;5092559;28;20393;-65
2022/05/31 00:23:44;;;;;;;1.65;1.35;;;21.60;48.40;;;;;;5092188;28;20385;-64
2022/05/31 00:26:10;;;;;;;2.28;1.50;;;21.60;48.50;;;;;;5092515;28;20428;-64
2022/05/31 00:28:36;;;;;;;1.88;1.40;;;21.60;48.40;;;;;;5092611;28;20378;-65
2022/05/31 00:31:03;;;;;;;1.60;1.50;;;21.60;48.30;;;;;;5092504;28;20499;-64
2022/05/31 00:33:29;;;;;;;1.67;1.48;;;21.60;48.30;;;;;;5092371;28;20527;-64
2022/05/31 00:35:55;;;;;;;2.07;1.53;;;21.60;48.20;;;;;;5090931;28;20933;-64
2022/05/31 00:38:21;;;;;;;2.10;1.60;;;21.60;48.20;;;;;;5092540;28;20461;-64
2022/05/31 00:40:47;;;;;;;2.30;1.80;;;21.60;48.10;;;;;;5092952;28;20390;-65
2022/05/31 00:43:18;;;;;;;2.10;1.50;;;21.50;48.20;;;;;;5092296;28;20734;-64
2022/05/31 00:46:01;;;;;;;1.92;1.40;;;21.60;48.10;;;;;;5091784;28;20479;-64
2022/05/31 00:48:30;;;;;;;1.98;1.58;;;21.50;48.00;;;;;;5092294;28;20375;-65
2022/05/31 00:51:04;;;;;;;2.33;1.50;;;21.50;48.00;;;;;;5092462;28;20730;-65
2022/05/31 00:53:37;;;;;;;1.75;1.27;;;21.50;48.00;;;;;;5091738;28;20405;-64
2022/05/31 00:56:14;;;;;;;2.00;1.40;;;21.50;48.10;;;;;;5091867;28;20390;-65
2022/05/31 00:58:45;;;;;;;1.80;1.25;;;21.50;48.10;;;;;;5091923;28;20375;-65
2022/05/31 01:01:14;;;;;;;1.70;1.50;;;21.50;48.20;;;;;;5090747;28;20455;-64
2022/05/31 01:03:42;;;;;;;2.10;1.40;;;21.50;48.30;;;;;;5090468;28;20382;-64
2022/05/31 01:06:10;;;;;;;1.65;1.50;;;21.50;48.30;;;;;;5091861;28;20418;-64
2022/05/31 01:08:36;;;;;;;1.50;1.40;;;21.50;48.30;;;;;;5091877;28;20865;-65
2022/05/31 01:11:03;;;;;;;1.50;1.40;;;21.50;48.30;;;;;;5091906;28;20397;-65
2022/05/31 01:13:29;;;;;;;2.00;1.50;;;21.50;48.20;;;;;;5091934;28;20783;-65
2022/05/31 01:16:04;;;;;;;1.98;1.33;;;21.50;48.20;;;;;;5091268;28;20385;-65
2022/05/31 01:18:30;;;;;;;1.42;1.30;;;21.50;48.20;;;;;;5091643;28;20429;-64
2022/05/31 01:20:55;;;;;;;1.70;1.58;;;21.50;48.10;;;;;;5090697;28;20398;-65
2022/05/31 01:23:23;;;;;;;2.20;1.40;;;21.50;48.00;;;;;;5091617;28;20386;-64
2022/05/31 01:26:15;;;;;;;2.55;1.40;;;21.50;48.20;;;;;;5091127;28;20406;-64
2022/05/31 01:28:49;;;;;;;2.90;1.48;;;21.50;48.10;;;;;;5091532;28;20381;-64
2022/05/31 01:31:27;;;;;;;1.60;1.20;;;21.50;48.20;;;;;;5091656;28;20917;-64
2022/05/31 01:34:04;;;;;;;1.70;1.60;;;21.50;48.10;;;;;;5090963;28;20378;-64
2022/05/31 01:36:36;;;;;;;1.90;1.70;;;21.50;48.20;;;;;;5091379;28;20865;-65
2022/05/31 01:39:05;;;;;;;1.63;1.52;;;21.40;48.70;;;;;;5091567;28;20382;-65
2022/05/31 01:41:43;;;;;;;2.10;1.57;;;21.50;48.30;;;;;;5091495;28;20902;-65
2022/05/31 01:44:12;;;;;;;1.88;1.38;;;21.40;48.20;;;;;;5091442;28;20416;-65
2022/05/31 01:46:38;;;;;;;1.92;1.50;;;21.40;48.20;;;;;;5091200;28;20450;-65
2022/05/31 01:49:07;;;;;;;2.08;1.50;;;21.40;48.20;;;;;;5091464;28;20888;-64
2022/05/31 01:51:40;;;;;;;1.73;1.23;;;21.40;48.20;;;;;;5091124;28;20391;-64
2022/05/31 01:54:07;;;;;;;1.80;1.50;;;21.40;48.20;;;;;;5090768;28;20506;-65
2022/05/31 01:56:35;;;;;;;2.10;1.48;;;21.40;48.30;;;;;;5091319;28;20417;-65
2022/05/31 01:59:03;;;;;;;1.50;1.40;;;21.40;48.10;;;;;;5091287;28;20417;-65
2022/05/31 02:01:31;;;;;;;1.63;1.50;;;21.40;48.10;;;;;;5091235;28;20443;-65
2022/05/31 02:03:57;;;;;;;1.70;1.50;;;21.40;48.20;;;;;;5090641;28;20434;-64
2022/05/31 02:06:32;;;;;;;1.52;1.40;;;21.40;48.20;;;;;;5090206;28;20421;-65
2022/05/31 02:08:59;;;;;;;1.70;1.60;;;21.40;48.20;;;;;;5090278;28;20930;-64
2022/05/31 02:11:26;;;;;;;1.60;1.50;;;21.30;48.10;;;;;;5091089;28;20750;-65
2022/05/31 02:13:52;;;;;;;2.40;1.60;;;21.40;48.10;;;;;;5090759;28;20805;-65
2022/05/31 02:16:18;;;;;;;1.70;1.50;;;21.40;48.20;;;;;;5089886;28;20390;-65
2022/05/31 02:21:35;;;;;;;1.35;1.25;;;21.40;48.30;;;;;;5091143;28;20451;-64
2022/05/31 02:24:07;;;;;;;1.92;1.48;;;21.40;48.30;;;;;;5090916;28;20385;-64
2022/05/31 02:26:33;;;;;;;2.10;1.45;;;21.30;48.20;;;;;;5090985;28;20498;-64
2022/05/31 02:28:59;;;;;;;1.80;1.33;;;21.40;48.50;;;;;;5091008;28;20379;-64
2022/05/31 02:31:26;;;;;;;2.63;1.50;;;21.30;48.50;;;;;;5090994;28;20469;-64
2022/05/31 02:33:52;;;;;;;1.50;1.40;;;21.30;48.50;;;;;;5089339;28;20382;-64
2022/05/31 02:36:18;;;;;;;1.95;1.58;;;21.30;48.50;;;;;;5091084;28;20382;-64
2022/05/31 02:38:44;;;;;;;2.17;1.38;;;21.30;48.60;;;;;;5091185;28;20386;-65
2022/05/31 02:41:09;;;;;;;2.17;1.50;;;21.30;48.60;;;;;;5093495;28;20389;-65
2022/05/31 02:43:36;;;;;;;2.63;1.40;;;21.30;48.50;;;;;;5094438;28;20393;-65
2022/05/31 02:46:03;;;;;;;1.70;1.40;;;21.30;48.50;;;;;;5094192;28;20418;-64
2022/05/31 02:48:29;;;;;;;1.50;1.40;;;21.30;48.50;;;;;;5093207;28;20393;-64
2022/05/31 02:50:55;;;;;;;2.70;1.50;;;21.30;48.30;;;;;;5094550;28;20378;-65
2022/05/31 02:53:21;;;;;;;2.17;1.50;;;21.30;48.50;;;;;;5094306;28;20881;-64
2022/05/31 02:55:46;;;;;;;1.70;1.60;;;21.30;48.70;;;;;;5094163;28;20393;-65
2022/05/31 02:58:12;;;;;;;1.97;1.40;;;21.30;48.50;;;;;;5094392;28;20382;-65
2022/05/31 03:00:40;;;;;;;1.92;1.48;;;21.30;48.50;;;;;;5093617;28;20406;-65
2022/05/31 03:03:06;;;;;;;2.20;1.60;;;21.30;48.60;;;;;;5094379;28;20927;-65
2022/05/31 03:05:32;;;;;;;2.20;1.50;;;21.30;48.60;;;;;;5094093;28;20402;-65
2022/05/31 03:07:58;;;;;;;3.22;1.40;;;21.30;49.00;;;;;;5094092;28;21024;-64
2022/05/31 03:10:28;;;;;;;4.32;1.42;;;21.30;49.30;;;;;;5094654;28;20462;-65
2022/05/31 03:12:55;;;;;;;5.05;2.90;;;21.40;49.30;;;;;;5094965;28;20387;-64
2022/05/31 03:15:22;;;;;;;11.17;5.70;;;21.40;50.30;;;;;;5095599;28;20377;-64
2022/05/31 03:17:56;;;;;;;6.25;3.38;;;21.40;52.40;;;;;;5094033;28;20390;-64
2022/05/31 03:20:50;;;;;;;8.48;2.40;;;21.40;51.30;;;;;;5093803;28;20379;-64
2022/05/31 03:23:33;;;;;;;7.30;2.40;;;21.50;51.60;;;;;;5093924;28;20375;-65
2022/05/31 03:26:03;;;;;;;5.70;2.42;;;21.50;51.10;;;;;;5093230;28;20463;-65
2022/05/31 03:28:30;;;;;;;5.25;2.05;;;21.60;51.20;;;;;;5093672;28;20378;-65
2022/05/31 03:30:55;;;;;;;4.47;2.00;;;21.60;51.20;;;;;;5094279;28;20404;-64
2022/05/31 03:33:21;;;;;;;6.60;2.10;;;21.70;51.10;;;;;;5102647;28;20404;-65
2022/05/31 03:35:47;;;;;;;4.60;2.10;;;21.70;51.10;;;;;;5106242;28;20387;-64
2022/05/31 03:38:13;;;;;;;4.40;2.13;;;21.70;51.10;;;;;;5101563;28;20424;-65
2022/05/31 03:40:56;;;;;;;9.20;2.00;;;21.70;51.10;;;;;;5106132;28;20438;-65
2022/05/31 03:43:23;;;;;;;9.97;1.90;;;21.70;51.00;;;;;;5114010;28;20796;-65
2022/05/31 03:45:49;;;;;;;8.20;2.00;;;21.70;50.90;;;;;;5113369;28;20427;-64
2022/05/31 03:48:15;;;;;;;8.93;1.73;;;21.80;50.70;;;;;;5113797;28;20376;-65
2022/05/31 03:50:41;;;;;;;4.50;1.73;;;21.70;50.70;;;;;;5093528;28;20455;-64
2022/05/31 03:53:08;;;;;;;9.80;1.97;;;21.70;50.50;;;;;;5090671;28;20505;-64
2022/05/31 03:55:38;;;;;;;6.75;1.60;;;21.70;51.00;;;;;;5093322;28;20394;-65
2022/05/31 03:58:05;;;;;;;6.05;1.60;;;21.60;50.70;;;;;;5092725;28;20407;-64
2022/05/31 04:00:31;;;;;;;8.73;1.75;;;21.60;50.60;;;;;;5093154;28;20750;-64
2022/05/31 04:02:57;;;;;;;8.50;1.70;;;21.60;50.30;;;;;;5092573;28;20730;-64
2022/05/31 04:05:22;;;;;;;7.17;1.63;;;21.60;50.70;;;;;;5092835;28;20401;-64
2022/05/31 04:07:52;;;;;;;5.68;2.03;;;21.60;50.10;;;;;;5092193;28;20382;-64
2022/05/31 04:10:18;;;;;;;7.45;1.80;;;21.60;49.80;;;;;;5092354;28;20381;-65
2022/05/31 04:12:44;;;;;;;3.87;1.90;;;21.50;49.50;;;;;;5092951;28;20499;-64
2022/05/31 04:15:09;;;;;;;2.80;1.40;;;21.50;48.50;;;;;;5092675;28;20439;-64
2022/05/31 04:17:35;;;;;;;3.33;1.60;;;21.50;48.70;;;;;;5092580;28;20461;-64
2022/05/31 04:20:01;;;;;;;3.78;1.75;;;21.40;48.20;;;;;;5092377;28;20398;-64
2022/05/31 04:22:27;;;;;;;3.28;1.50;;;21.40;48.50;;;;;;5092714;28;20382;-64
2022/05/31 04:24:54;;;;;;;5.37;1.60;;;21.30;48.20;;;;;;5092601;28;20390;-64
2022/05/31 04:27:21;;;;;;;4.22;1.42;;;21.40;48.40;;;;;;5092587;28;20420;-64
2022/05/31 04:29:47;;;;;;;3.97;1.77;;;21.30;48.20;;;;;;5092311;28;20383;-64
2022/05/31 04:32:17;;;;;;;5.05;1.60;;;21.30;48.30;;;;;;5092448;28;20793;-64
2022/05/31 04:34:43;;;;;;;3.42;1.80;;;21.30;48.20;;;;;;5092503;28;20386;-64
2022/05/31 04:37:09;;;;;;;3.57;1.90;;;21.30;48.30;;;;;;5092538;28;20896;-64
2022/05/31 04:39:35;;;;;;;3.08;1.60;;;21.30;48.30;;;;;;5092415;28;21069;-64
2022/05/31 04:42:01;;;;;;;3.40;1.50;;;21.30;48.40;;;;;;5091986;28;20409;-64
2022/05/31 04:44:27;;;;;;;2.85;1.60;;;21.30;48.40;;;;;;5092405;28;20858;-64
2022/05/31 04:46:53;;;;;;;1.40;1.30;;;21.30;48.40;;;;;;5092333;28;20482;-64
2022/05/31 04:49:19;;;;;;;2.55;1.60;;;21.30;49.00;;;;;;5092347;28;20390;-64
2022/05/31 04:51:45;;;;;;;2.30;1.60;;;21.30;48.50;;;;;;5102317;28;20388;-64
2022/05/31 04:54:11;;;;;;;2.85;1.50;;;21.30;48.50;;;;;;5095989;28;20783;-64
2022/05/31 04:56:36;;;;;;;3.08;1.60;;;21.30;48.50;;;;;;5092230;28;20460;-64
2022/05/31 04:59:02;;;;;;;2.10;1.40;;;21.30;48.60;;;;;;5088402;28;20868;-64
2022/05/31 05:01:28;;;;;;;3.08;1.73;;;21.30;48.80;;;;;;5071785;28;20392;-64
2022/05/31 05:03:55;;;;;;;2.00;1.70;;;21.30;48.80;;;;;;5073030;28;20391;-64
2022/05/31 05:06:22;;;;;;;4.53;3.17;;;21.40;49.20;;;;;;5091668;28;20446;-64
2022/05/31 05:08:48;;;;;;;5.80;2.80;;;21.40;51.00;;;;;;5093486;28;20385;-64
2022/05/31 05:11:20;;;;;;;4.72;2.35;;;21.50;49.70;;;;;;5091321;28;20389;-64
2022/05/31 05:13:48;;;;;;;3.50;2.25;;;21.50;49.60;;;;;;5090899;28;20377;-64
2022/05/31 05:16:15;;;;;;;3.53;2.72;;;21.60;49.40;;;;;;5090763;28;20392;-64
2022/05/31 05:18:41;;;;;;;4.28;2.30;;;21.60;49.20;;;;;;5090947;28;20389;-64
2022/05/31 05:21:09;;;;;;;5.07;2.47;;;21.60;49.40;;;;;;5091097;28;20386;-64
2022/05/31 05:23:35;;;;;;;3.53;2.47;;;21.70;49.50;;;;;;5088040;28;20390;-64
2022/05/31 05:26:02;;;;;;;3.58;2.25;;;21.70;49.30;;;;;;5090256;28;20910;-64
2022/05/31 05:31:27;;;;;;;3.50;2.30;;;21.70;49.50;;;;;;5090888;28;20752;-63
2022/05/31 05:33:55;;;;;;;2.78;2.13;;;21.70;49.40;;;;;;5090491;28;20418;-64
2022/05/31 05:36:21;;;;;;;2.80;1.73;;;21.80;49.60;;;;;;5089293;28;20390;-64
2022/05/31 05:38:48;;;;;;;2.55;1.98;;;21.80;49.50;;;;;;5089690;28;20394;-64
2022/05/31 05:41:14;;;;;;;2.60;1.83;;;21.80;49.70;;;;;;5091628;28;20392;-64
2022/05/31 05:43:43;;;;;;;3.70;2.15;;;21.80;50.40;;;;;;5095054;28;20388;-64
2022/05/31 05:46:17;;;;;;;3.53;1.88;;;21.80;50.60;;;;;;5090393;28;20905;-64
2022/05/31 05:48:44;;;;;;;3.28;1.60;;;21.80;50.60;;;;;;5091028;28;20874;-64
2022/05/31 05:51:23;;;;;;;2.67;1.60;;;21.80;50.60;;;;;;5091106;28;20393;-64
2022/05/31 05:53:49;;;;;;;2.60;1.67;;;21.80;50.50;;;;;;5098313;28;20911;-64
2022/05/31 05:56:16;;;;;;;2.67;1.55;;;21.80;50.50;;;;;;5109604;28;20399;-64
2022/05/31 05:58:42;;;;;;;1.90;1.60;;;21.80;50.30;;;;;;5107261;28;20387;-64
2022/05/31 06:01:30;;;;;;;2.00;1.70;;;21.80;50.20;;;;;;5111308;28;20388;-65
2022/05/31 06:04:06;;;;;;;2.53;1.70;;;21.80;50.10;;;;;;5111364;28;20441;-64
2022/05/31 06:06:34;;;;;;;1.95;1.73;;;21.80;50.10;;;;;;5110075;28;20412;-65
2022/05/31 06:09:08;;;;;;;2.45;1.70;;;21.70;49.90;;;;;;5111581;28;20459;-64
2022/05/31 06:11:47;;;;;;;1.90;1.70;;;21.70;49.90;;;;;;5110840;28;20434;-65
2022/05/31 06:14:24;;;;;;;2.40;1.60;;;21.70;49.80;;;;;;5112039;28;20372;-64
2022/05/31 06:16:56;;;;;;;1.80;1.48;;;21.80;49.90;;;;;;5115304;28;20380;-65
2022/05/31 06:19:33;;;;;;;1.73;1.55;;;21.80;49.70;;;;;;5114760;28;20459;-64
2022/05/31 06:22:00;;;;;;;1.60;1.50;;;21.80;49.70;;;;;;5114850;28;20857;-64
2022/05/31 06:24:29;;;;;;;1.63;1.50;;;21.80;49.70;;;;;;5115398;28;20717;-64
2022/05/31 06:26:54;;;;;;;2.50;1.60;;;21.80;49.60;;;;;;5115151;28;20415;-64
2022/05/31 06:29:20;;;;;;;2.03;1.50;;;21.80;49.60;;;;;;5114804;28;20388;-64
2022/05/31 06:31:46;;;;;;;1.98;1.60;;;21.80;49.50;;;;;;5115036;28;20402;-64
2022/05/31 06:34:12;;;;;;;1.60;1.50;;;21.80;49.50;;;;;;5105573;28;20812;-65
2022/05/31 06:36:39;;;;;;;1.92;1.30;;;21.80;49.40;;;;;;5095512;28;20435;-65
2022/05/31 06:39:05;;;;;;;1.52;1.42;;;21.80;49.40;;;;;;5115022;28;20740;-65
2022/05/31 06:41:31;;;;;;;1.65;1.55;;;21.80;49.40;;;;;;5114939;28;20848;-64
2022/05/31 06:43:59;;;;;;;1.88;1.55;;;21.80;49.40;;;;;;5114984;28;20392;-65
2022/05/31 06:46:25;;;;;;;1.63;1.33;;;21.80;49.40;;;;;;5114772;28;20604;-64
2022/05/31 06:48:51;;;;;;;1.60;1.48;;;21.80;49.30;;;;;;5114769;28;20915;-64
2022/05/31 06:56:48;;;;;;;1.60;1.50;;;21.80;49.30;;;;;;5114453;28;20488;-65
2022/05/31 06:56:59;;;;;;;1.90;1.60;;;21.80;49.20;;;;;;5114996;28;20416;-64
2022/05/31 06:59:24;;;;;;;1.92;1.65;;;21.80;49.20;;;;;;5114345;28;20385;-65
2022/05/31 07:01:51;;;;;;;1.70;1.60;;;21.80;49.10;;;;;;5114063;28;20383;-65
2022/05/31 07:04:17;;;;;;;1.55;1.45;;;21.80;49.20;;;;;;5114520;28;20389;-64
2022/05/31 07:06:42;;;;;;;2.03;1.73;;;21.80;49.10;;;;;;5114362;28;20411;-64
2022/05/31 07:09:08;;;;;;;2.28;1.35;;;21.90;49.20;;;;;;5114268;28;20384;-64
2022/05/31 07:11:34;;;;;;;1.67;1.30;;;21.90;49.20;;;;;;5114109;28;20384;-64
2022/05/31 07:14:03;;;;;;;1.50;1.33;;;21.90;49.20;;;;;;5113866;28;20380;-64
2022/05/31 07:16:28;;;;;;;1.75;1.40;;;21.90;49.10;;;;;;5112733;28;20420;-64
2022/05/31 07:18:55;;;;;;;2.10;1.40;;;21.90;49.10;;;;;;5114158;28;20420;-64
2022/05/31 07:21:21;;;;;;;1.75;1.48;;;21.90;49.00;;;;;;5113940;28;20420;-64
2022/05/31 07:23:47;;;;;;;1.60;1.38;;;21.90;49.10;;;;;;5112881;28;20439;-64
2022/05/31 07:26:13;;;;;;;1.70;1.30;;;21.90;49.10;;;;;;5112052;28;20817;-64
2022/05/31 07:28:39;;;;;;;1.45;1.35;;;21.90;49.10;;;;;;5112298;28;20978;-64
2022/05/31 07:31:05;;;;;;;1.48;1.38;;;21.90;49.00;;;;;;5113914;28;20861;-64
2022/05/31 07:33:31;;;;;;;1.90;1.40;;;21.90;49.10;;;;;;5113674;28;20372;-64
2022/05/31 07:35:57;;;;;;;1.60;1.40;;;21.90;49.00;;;;;;5113566;28;20866;-64
2022/05/31 07:38:23;;;;;;;1.70;1.30;;;21.90;49.00;;;;;;5113533;28;20380;-64
2022/05/31 07:40:49;;;;;;;2.22;1.50;;;21.90;49.00;;;;;;5113774;28;20885;-64
2022/05/31 07:43:16;;;;;;;1.52;1.30;;;21.90;48.90;;;;;;5113694;28;20861;-64
2022/05/31 07:45:42;;;;;;;1.60;1.40;;;21.90;49.60;;;;;;5112254;28;20400;-64
2022/05/31 07:48:08;;;;;;;1.58;1.23;;;21.90;48.90;;;;;;5113133;28;20787;-64
2022/05/31 07:50:34;;;;;;;1.55;1.25;;;21.90;49.00;;;;;;5113459;28;20387;-64
2022/05/31 07:53:01;;;;;;;1.70;1.30;;;21.90;49.00;;;;;;5113506;28;20404;-64
2022/05/31 07:55:28;;;;;;;1.40;1.30;;;21.90;48.90;;;;;;5113258;28;20380;-66
2022/05/31 08:00:39;;;;;;;1.60;1.30;;;21.90;49.00;;;;;;5113668;28;20396;-65
2022/05/31 08:03:06;;;;;;;1.40;1.25;;;21.90;49.00;;;;;;5113396;28;20384;-64
2022/05/31 08:05:32;;;;;;;1.48;1.35;;;21.90;49.00;;;;;;5113047;28;20891;-64
2022/05/31 08:07:58;;;;;;;1.40;1.30;;;21.90;48.90;;;;;;5113078;28;20391;-64
2022/05/31 08:10:24;;;;;;;1.33;1.23;;;21.90;48.90;;;;;;5112710;28;20389;-64
2022/05/31 08:12:49;;;;;;;1.60;1.40;;;21.90;48.90;;;;;;5113195;28;20424;-64
2022/05/31 08:15:15;;;;;;;1.30;1.20;;;21.90;48.90;;;;;;5112949;28;20383;-64
2022/05/31 08:17:42;;;;;;;1.50;1.40;;;21.90;48.90;;;;;;5112961;28;20380;-64
2022/05/31 08:20:09;;;;;;;1.60;1.50;;;21.90;49.00;;;;;;5112368;28;20871;-64
2022/05/31 08:22:35;;;;;;;1.30;1.17;;;21.90;49.00;;;;;;5112832;28;20607;-64
2022/05/31 08:25:02;;;;;;;1.80;1.52;;;21.90;49.00;;;;;;5112842;28;20864;-64
2022/05/31 08:27:28;;;;;;;2.17;1.65;;;21.90;49.00;;;;;;5112526;28;20388;-64
2022/05/31 08:29:54;;;;;;;13.73;9.05;;;21.90;49.20;;;;;;5112208;28;20388;-64
2022/05/31 08:32:20;;;;;;;6.93;5.57;;;22.00;52.10;;;;;;5111242;28;20392;-64
2022/05/31 08:34:47;;;;;;;3.45;2.90;;;22.00;52.90;;;;;;5112726;28;20380;-64
2022/05/31 08:37:13;;;;;;;3.67;2.50;;;22.00;51.90;;;;;;5112118;28;20427;-65
2022/05/31 08:39:39;;;;;;;3.03;2.40;;;22.00;51.40;;;;;;5112487;28;20387;-65
2022/05/31 08:42:18;;;;;;;3.25;2.10;;;22.00;51.10;;;;;;5112412;28;20384;-64
2022/05/31 08:44:58;;;;;;;2.00;1.80;;;22.00;50.90;;;;;;5098189;28;20385;-64
2022/05/31 08:47:58;;;;;;;2.15;1.70;;;22.00;50.70;;;;;;5091924;28;20548;-64
2022/05/31 08:53:26;;;;;;;2.30;1.80;;;22.00;50.50;;;;;;5091705;28;20447;-65
2022/05/31 08:59:24;;;;;;;1.70;1.60;;;22.00;50.50;;;;;;5092042;28;20803;-64
2022/05/31 09:01:53;;;;;;;2.43;1.73;;;22.00;50.30;;;;;;5091882;28;20454;-64
2022/05/31 09:04:43;;;;;;;1.90;1.70;;;22.00;50.30;;;;;;5091142;28;20431;-64
2022/05/31 09:07:14;;;;;;;2.13;1.75;;;22.00;50.20;;;;;;5090342;28;20540;-64
2022/05/31 09:10:05;;;;;;;2.10;1.40;;;22.00;50.20;;;;;;5091652;28;20381;-64
2022/05/31 09:12:42;;;;;;;2.22;1.60;;;22.00;50.00;;;;;;5090931;28;20405;-64
2022/05/31 09:15:11;;;;;;;1.60;1.50;;;22.00;50.00;;;;;;5091541;28;20378;-64
2022/05/31 09:17:45;;;;;;;1.98;1.65;;;22.00;49.80;;;;;;5091488;28;20382;-64
2022/05/31 09:20:29;;;;;;;1.60;1.50;;;22.00;49.80;;;;;;5091127;28;20409;-64
2022/05/31 09:22:55;;;;;;;1.60;1.40;;;22.00;49.70;;;;;;5091649;28;20374;-64
2022/05/31 09:25:21;;;;;;;1.55;1.45;;;22.00;49.50;;;;;;5091232;28;20415;-64
2022/05/31 09:27:50;;;;;;;1.70;1.50;;;22.00;49.40;;;;;;5091625;28;20386;-64
2022/05/31 09:30:40;;;;;;;1.73;1.53;;;22.00;49.40;;;;;;5091141;28;20473;-64
2022/05/31 09:33:27;;;;;;;2.03;1.50;;;22.00;49.40;;;;;;5091397;28;20388;-64
2022/05/31 09:36:19;;;;;;;1.55;1.40;;;22.00;49.30;;;;;;5091249;28;20457;-64
2022/05/31 09:38:54;;;;;;;1.70;1.27;;;22.00;49.30;;;;;;5085604;28;20447;-65
2022/05/31 09:42:00;;;;;;;1.70;1.60;;;22.00;49.30;;;;;;5091165;28;20975;-64
2022/05/31 09:44:34;;;;;;;1.50;1.40;;;22.00;49.30;;;;;;5067755;28;20404;-64
2022/05/31 09:47:17;;;;;;;1.60;1.50;;;22.00;49.20;;;;;;5091183;28;20897;-65
2022/05/31 09:49:50;;;;;;;2.58;1.42;;;22.00;49.20;;;;;;5092113;28;20382;-63
2022/05/31 09:52:30;;;;;;;3.88;2.67;;;22.00;49.30;;;;;;5094693;28;20405;-63
2022/05/31 09:58:16;;;;;;;1107.35;567.88;;;22.10;50.30;;;;;;5095479;28;20979;-62
2022/05/31 10:00:57;;;;;;;942.75;503.52;;;22.10;51.00;;;;;;5093727;28;20418;-62
2022/05/31 10:03:46;;;;;;;814.90;426.52;;;22.20;51.00;;;;;;5094527;28;20418;-63
2022/05/31 10:06:21;;;;;;;596.75;310.08;;;22.20;50.90;;;;;;5093845;28;20410;-63
2022/05/31 10:08:49;;;;;;;538.85;266.40;;;22.30;50.80;;;;;;5093765;28;21012;-63
2022/05/31 10:11:29;;;;;;;504.90;247.90;;;22.30;50.70;;;;;;5093575;28;20754;-63
2022/05/31 10:13:58;;;;;;;472.70;229.50;;;22.30;50.60;;;;;;5092246;28;20951;-63
2022/05/31 10:16:25;;;;;;;461.30;217.80;;;22.30;50.50;;;;;;5093335;28;20377;-63
2022/05/31 10:19:02;;;;;;;439.33;211.77;;;22.40;50.50;;;;;;5093749;28;20382;-63
2022/05/31 10:21:42;;;;;;;446.15;210.48;;;22.30;50.30;;;;;;5091155;28;20473;-63
2022/05/31 10:24:20;;;;;;;434.30;207.13;;;22.30;50.20;;;;;;5093459;28;20453;-62
2022/05/31 10:27:08;;;;;;;430.48;205.65;;;22.30;49.80;;;;;;5094765;28;20448;-66
2022/05/31 10:29:47;;;;;;;419.67;201.25;;;22.20;50.00;;;;;;5093819;28;20389;-64
2022/05/31 10:32:24;;;;;;;420.55;200.07;;;22.20;49.50;;;;;;5091591;28;20404;-62
2022/05/31 10:35:26;;;;;;;406.60;190.02;;;22.20;49.80;;;;;;5094650;28;20397;-63
2022/05/31 10:38:00;;;;;;;378.23;177.70;;;22.20;49.80;;;;;;5096339;28;20401;-63
2022/05/31 10:40:49;;;;;;;362.80;167.63;;;22.20;49.70;;;;;;5094099;28;20430;-63
2022/05/31 10:43:15;;;;;;;350.10;161.18;;;22.20;49.60;;;;;;5094051;28;20366;-64
2022/05/31 10:45:43;;;;;;;332.60;153.80;;;22.20;49.60;;;;;;5093920;28;20394;-63
2022/05/31 10:48:09;;;;;;;306.20;146.15;;;22.20;49.50;;;;;;5093785;28;20473;-64
2022/05/31 10:50:56;;;;;;;277.67;133.47;;;22.20;49.50;;;;;;5093859;28;20473;-64
2022/05/31 10:53:34;;;;;;;261.05;123.88;;;22.20;49.30;;;;;;5093804;28;20426;-63
2022/05/31 10:56:24;;;;;;;237.63;117.25;;;22.20;49.20;;;;;;5094147;28;20378;-64
2022/05/31 10:59:01;;;;;;;223.13;108.82;;;22.20;49.10;;;;;;5094331;28;20413;-64
2022/05/31 11:02:08;;;;;;;206.00;101.00;;;22.20;49.20;;;;;;5092926;28;20378;-63
2022/05/31 11:05:02;;;;;;;188.30;93.55;;;22.20;49.10;;;;;;5093448;28;20378;-63
2022/05/31 11:14:09;;;;;;;154.23;74.72;;;22.20;48.90;;;;;;5093896;28;20465;-64
2022/05/31 11:17:29;;;;;;;132.50;67.23;;;22.20;48.80;;;;;;5092155;28;20443;-64
2022/05/31 11:20:23;;;;;;;133.32;64.13;;;22.20;48.80;;;;;;5080131;28;20473;-64
2022/05/31 11:23:09;;;;;;;130.43;63.03;;;22.20;48.70;;;;;;5093609;28;20447;-64
2022/05/31 11:25:38;;;;;;;127.20;61.75;;;22.20;48.70;;;;;;5093631;28;20747;-64
2022/05/31 11:28:30;;;;;;;115.57;58.38;;;22.20;48.70;;;;;;5092028;28;20414;-64
2022/05/31 11:31:10;;;;;;;113.07;55.70;;;22.20;48.60;;;;;;5093797;28;20417;-64
2022/05/31 11:34:07;;;;;;;101.10;51.67;;;22.20;48.60;;;;;;5093517;28;20385;-64
2022/05/31 11:36:59;;;;;;;98.43;49.53;;;22.30;48.60;;;;;;5093157;28;20389;-64
2022/05/31 11:39:34;;;;;;;93.87;47.53;;;22.30;48.60;;;;;;5091883;28;20420;-64
2022/05/31 11:42:34;;;;;;;93.40;45.58;;;22.20;48.50;;;;;;5092058;28;20386;-64
2022/05/31 11:45:25;;;;;;;87.00;45.13;;;22.30;48.50;;;;;;5082106;28;20393;-65
2022/05/31 11:47:51;;;;;;;90.80;45.83;;;22.20;48.40;;;;;;5093290;28;20392;-63
2022/05/31 11:50:40;;;;;;;84.97;43.03;;;22.30;48.40;;;;;;5092639;28;20448;-64
2022/05/31 11:53:12;;;;;;;78.53;42.70;;;22.20;48.30;;;;;;5093116;28;20467;-64
2022/05/31 11:55:57;;;;;;;75.70;39.90;;;22.30;48.30;;;;;;5093129;28;20390;-64
2022/05/31 11:59:03;;;;;;;69.88;36.67;;;22.30;48.30;;;;;;5092662;28;20386;-63
2022/05/31 12:01:47;;;;;;;87.38;45.53;;;22.30;48.30;;;;;;5053008;28;20416;-64
2022/05/31 12:04:30;;;;;;;102.55;50.55;;;22.20;48.70;;;;;;5072887;28;20398;-64
2022/05/31 12:07:09;;;;;;;96.72;51.00;;;22.30;48.90;;;;;;5072492;28;20772;-64
2022/05/31 12:09:56;;;;;;;103.47;52.07;;;22.30;49.40;;;;;;5072464;28;20391;-64
2022/05/31 12:12:33;;;;;;;90.68;46.85;;;22.40;49.50;;;;;;5068456;28;20380;-64
2022/05/31 12:15:21;;;;;;;81.50;43.40;;;22.30;49.60;;;;;;5071775;28;20894;-63
2022/05/31 12:18:03;;;;;;;83.65;41.72;;;22.30;49.50;;;;;;5056860;28;20477;-64
2022/05/31 12:20:41;;;;;;;72.90;40.42;;;22.30;49.40;;;;;;5077384;28;20477;-64
2022/05/31 12:23:20;;;;;;;67.83;36.83;;;22.30;49.50;;;;;;5072676;28;20479;-64
2022/05/31 12:25:53;;;;;;;70.50;37.15;;;22.30;49.30;;;;;;5072271;28;20431;-64
2022/05/31 12:28:29;;;;;;;68.65;35.25;;;22.40;49.20;;;;;;5072481;28;20899;-64
2022/05/31 12:31:27;;;;;;;67.38;36.53;;;22.30;49.50;;;;;;5054179;28;20429;-64
2022/05/31 12:34:09;;;;;;;61.97;33.63;;;22.40;49.20;;;;;;5070881;28;20441;-64
2022/05/31 12:36:55;;;;;;;58.83;32.17;;;22.30;49.40;;;;;;5071263;28;20756;-65
2022/05/31 12:39:24;;;;;;;57.58;30.70;;;22.40;49.20;;;;;;5051467;28;20968;-64
2022/05/31 12:41:51;;;;;;;53.58;29.60;;;22.40;49.10;;;;;;5051443;28;20419;-64
2022/05/31 12:44:35;;;;;;;53.50;29.02;;;22.40;49.20;;;;;;5067833;28;20403;-64
2022/05/31 12:47:32;;;;;;;51.97;27.75;;;22.30;49.10;;;;;;5065594;28;20904;-63
2022/05/31 12:50:06;;;;;;;49.60;27.40;;;22.30;48.90;;;;;;5020576;28;20403;-64
2022/05/31 12:55:32;;;;;;;45.58;25.13;;;22.40;49.10;;;;;;5091612;28;20390;-64
2022/05/31 12:58:28;;;;;;;45.53;24.45;;;22.40;48.90;;;;;;5073513;28;20402;-64
2022/05/31 13:00:55;;;;;;;45.33;24.17;;;22.40;48.90;;;;;;5090465;28;20440;-63
2022/05/31 13:03:32;;;;;;;41.53;23.13;;;22.40;48.90;;;;;;5091567;28;20882;-64
2022/05/31 13:06:05;;;;;;;39.92;21.95;;;22.30;48.80;;;;;;5091432;28;20466;-63
2022/05/31 13:08:49;;;;;;;38.67;21.20;;;22.40;48.80;;;;;;5091088;28;20436;-64
2022/05/31 13:20:13;;;;;;;33.63;18.88;;;22.40;48.60;;;;;;5090797;28;20435;-63
2022/05/31 13:22:43;;;;;;;31.73;18.23;;;22.40;48.70;;;;;;5091417;28;20382;-63
2022/05/31 13:25:22;;;;;;;30.80;17.42;;;22.40;48.60;;;;;;5091351;28;20881;-63
2022/05/31 13:27:54;;;;;;;31.27;18.23;;;22.40;48.60;;;;;;5087433;28;20762;-63
2022/05/31 13:30:23;;;;;;;30.83;17.50;;;22.30;48.50;;;;;;5090998;28;20374;-63
2022/05/31 13:32:49;;;;;;;29.50;16.92;;;22.40;48.60;;;;;;5091663;28;20386;-63
2022/05/31 13:35:16;;;;;;;27.00;15.85;;;22.40;48.60;;;;;;5091599;28;20465;-63
2022/05/31 13:37:59;;;;;;;28.50;15.80;;;22.30;48.50;;;;;;5090565;28;20390;-64
2022/05/31 13:40:35;;;;;;;27.23;15.30;;;22.40;48.50;;;;;;5088424;28;20385;-63
2022/05/31 13:43:04;;;;;;;29.23;15.55;;;22.30;48.50;;;;;;5088108;28;20409;-63
2022/05/31 13:45:33;;;;;;;24.17;14.50;;;22.30;48.50;;;;;;5090652;28;20402;-64